createdAt,value
2022-08-08T03:47:58.997Z,20.80
2022-08-08T03:50:26.643Z,20.70
2022-08-08T03:52:54.076Z,20.60
2022-08-08T03:55:55.894Z,20.50
2022-08-08T03:58:36.461Z,20.50
2022-08-08T04:01:02.148Z,20.40
2022-08-08T04:03:58.748Z,20.40
2022-08-08T04:06:29.734Z,20.40
2022-08-08T04:08:58.149Z,20.40
2022-08-08T04:11:59.249Z,20.40
2022-08-08T04:14:34.158Z,20.20
2022-08-08T04:17:04.348Z,20.20
2022-08-08T04:19:36.662Z,20.20
2022-08-08T04:22:04.406Z,20.10
2022-08-08T04:24:31.979Z,20.10
2022-08-08T04:26:59.482Z,20.10
2022-08-08T04:29:27.167Z,20.10
2022-08-08T04:31:59.376Z,20.10
2022-08-08T04:34:28.126Z,20.10
2022-08-08T04:36:59.466Z,20.20
2022-08-08T04:40:04.620Z,20.20
2022-08-08T04:42:17.607Z,20.20
2022-08-08T04:44:47.838Z,20.30
2022-08-08T04:47:15.056Z,20.30
2022-08-08T04:50:00.335Z,20.30
2022-08-08T04:52:34.359Z,20.40
2022-08-08T04:55:04.493Z,20.40
2022-08-08T04:57:34.196Z,20.40
2022-08-08T05:00:02.519Z,20.50
2022-08-08T05:02:31.305Z,20.40
2022-08-08T05:04:59.896Z,20.40
2022-08-08T05:07:37.774Z,20.40
2022-08-08T05:10:12.771Z,20.50
2022-08-08T05:12:42.990Z,20.50
2022-08-08T05:16:48.231Z,20.50
2022-08-08T05:18:14.641Z,20.50
2022-08-08T05:20:49.797Z,20.50
2022-08-08T05:23:19.840Z,20.50
2022-08-08T05:25:48.915Z,20.50
2022-08-08T05:28:27.958Z,20.60
2022-08-08T05:31:19.126Z,20.70
2022-08-08T05:33:50.817Z,20.80
2022-08-08T05:36:25.382Z,20.80
2022-08-08T05:38:56.266Z,20.80
2022-08-08T05:41:25.755Z,20.90
2022-08-08T05:44:04.186Z,20.80
2022-08-08T05:46:32.713Z,20.90
2022-08-08T05:49:00.659Z,20.90
2022-08-08T05:51:27.737Z,21.00
2022-08-08T05:54:26.727Z,20.90
2022-08-08T05:57:04.780Z,20.90
2022-08-08T05:59:52.325Z,21.00
2022-08-08T06:02:43.405Z,21.10
2022-08-08T06:05:34.254Z,21.30
2022-08-08T06:08:02.832Z,21.40
2022-08-08T06:10:39.364Z,21.50
2022-08-08T06:13:08.510Z,21.50
2022-08-08T06:15:50.501Z,21.60
2022-08-08T06:18:22.275Z,21.70
2022-08-08T06:20:50.983Z,21.80
2022-08-08T06:23:48.520Z,21.90
2022-08-08T06:26:38.300Z,21.90
2022-08-08T06:29:26.308Z,21.90
2022-08-08T06:32:09.858Z,21.90
2022-08-08T06:34:52.623Z,21.80
2022-08-08T06:37:27.921Z,21.80
2022-08-08T06:39:56.978Z,21.90
2022-08-08T06:42:24.633Z,21.90
2022-08-08T06:44:55.298Z,21.90
2022-08-08T06:47:22.844Z,21.90
2022-08-08T06:49:58.806Z,21.90
2022-08-08T06:52:27.727Z,21.90
2022-08-08T06:54:55.516Z,22.00
2022-08-08T06:57:25.029Z,22.10
2022-08-08T07:00:10.411Z,22.20
2022-08-08T07:02:45.972Z,22.30
2022-08-08T07:05:20.341Z,22.40
2022-08-08T07:08:04.534Z,22.50
2022-08-08T07:10:42.051Z,22.60
2022-08-08T07:13:17.711Z,22.60
2022-08-08T07:16:04.370Z,22.70
2022-08-08T07:18:40.581Z,22.70
2022-08-08T07:21:18.489Z,22.70
2022-08-08T07:24:01.844Z,22.70
2022-08-08T07:26:35.581Z,22.70
2022-08-08T07:29:05.700Z,22.70
2022-08-08T07:31:36.505Z,22.70
2022-08-08T07:34:08.685Z,22.70
2022-08-08T07:36:37.661Z,22.70
2022-08-08T07:39:22.500Z,22.70
2022-08-08T07:42:03.964Z,22.70
2022-08-08T07:44:38.087Z,22.80
2022-08-08T07:47:08.857Z,22.80
2022-08-08T07:49:40.085Z,22.90
2022-08-08T07:52:13.060Z,23.00
2022-08-08T07:54:54.534Z,23.10
2022-08-08T07:57:30.649Z,23.20
2022-08-08T08:00:04.928Z,23.20
2022-08-08T08:02:43.402Z,23.20
2022-08-08T08:05:18.726Z,23.10
2022-08-08T08:07:53.209Z,23.00
2022-08-08T08:10:30.863Z,22.80
2022-08-08T08:13:25.139Z,22.80
2022-08-08T08:16:04.017Z,22.80
2022-08-08T08:18:55.975Z,23.00
2022-08-08T08:21:35.392Z,23.00
2022-08-08T08:24:12.903Z,23.10
2022-08-08T08:26:39.938Z,23.20
2022-08-08T08:29:19.803Z,23.20
2022-08-08T08:31:54.084Z,23.30
2022-08-08T08:34:32.811Z,23.40
2022-08-08T08:37:08.323Z,23.40
2022-08-08T08:40:00.592Z,23.40
2022-08-08T08:42:31.458Z,23.30
2022-08-08T08:45:21.203Z,23.30
2022-08-08T08:47:52.984Z,23.50
2022-08-08T08:50:33.770Z,23.60
2022-08-08T08:53:40.814Z,23.70
2022-08-08T08:55:54.595Z,23.80
2022-08-08T08:58:31.170Z,23.70
2022-08-08T09:01:08.469Z,23.70
2022-08-08T09:03:46.752Z,23.90
2022-08-08T09:06:35.222Z,23.90
2022-08-08T09:09:05.005Z,23.90
2022-08-08T09:11:47.306Z,23.90
2022-08-08T09:14:23.256Z,24.00
2022-08-08T09:16:55.435Z,23.90
2022-08-08T09:21:58.681Z,23.90
2022-08-08T09:22:11.199Z,23.90
2022-08-08T09:24:40.137Z,23.90
2022-08-08T09:27:20.274Z,24.00
2022-08-08T09:29:52.672Z,24.10
2022-08-08T09:32:31.200Z,24.20
2022-08-08T09:35:04.064Z,24.30
2022-08-08T09:38:01.228Z,24.30
2022-08-08T09:40:43.833Z,24.30
2022-08-08T09:43:24.214Z,24.30
2022-08-08T09:46:11.001Z,24.40
2022-08-08T09:48:42.917Z,24.50
2022-08-08T09:51:15.040Z,24.60
2022-08-08T09:54:01.356Z,24.60
2022-08-08T09:56:34.095Z,24.60
2022-08-08T09:59:40.338Z,24.60
2022-08-08T10:02:14.459Z,24.70
2022-08-08T10:04:48.343Z,24.70
2022-08-08T10:07:16.450Z,24.80
2022-08-08T10:09:59.631Z,24.90
2022-08-08T10:12:38.522Z,24.70
2022-08-08T10:15:19.241Z,24.70
2022-08-08T10:18:05.513Z,24.70
2022-08-08T10:21:00.591Z,24.60
2022-08-08T10:23:42.907Z,24.60
2022-08-08T10:26:58.615Z,24.70
2022-08-08T10:29:23.175Z,24.70
2022-08-08T10:32:15.463Z,24.80
2022-08-08T10:34:49.993Z,24.90
2022-08-08T10:37:26.243Z,25.00
2022-08-08T10:39:55.887Z,25.20
2022-08-08T10:42:27.994Z,25.30
2022-08-08T10:44:59.685Z,25.40
2022-08-08T10:47:30.586Z,25.50
2022-08-08T10:50:15.447Z,25.60
2022-08-08T10:52:43.274Z,25.60
2022-08-08T10:55:40.581Z,25.50
2022-08-08T10:58:05.978Z,25.60
2022-08-08T11:00:39.189Z,25.60
2022-08-08T11:03:17.940Z,25.70
2022-08-08T11:05:51.765Z,25.80
2022-08-08T11:08:40.956Z,25.90
2022-08-08T11:11:32.543Z,25.90
2022-08-08T11:14:01.001Z,26.00
2022-08-08T11:16:33.116Z,26.00
2022-08-08T11:19:01.782Z,26.00
2022-08-08T11:21:35.641Z,26.00
2022-08-08T11:24:05.631Z,26.10
2022-08-08T11:26:38.208Z,26.20
2022-08-08T11:29:21.693Z,26.20
2022-08-08T11:31:51.877Z,26.30
2022-08-08T11:34:23.405Z,26.30
2022-08-08T11:36:59.580Z,26.20
2022-08-08T11:39:26.913Z,26.10
2022-08-08T11:42:09.160Z,26.10
2022-08-08T11:44:37.466Z,26.20
2022-08-08T11:47:04.471Z,26.20
2022-08-08T11:49:40.942Z,26.10
2022-08-08T11:52:08.701Z,26.20
2022-08-08T11:54:46.257Z,26.30
2022-08-08T11:57:27.516Z,26.30
2022-08-08T12:00:06.011Z,26.40
2022-08-08T12:02:45.339Z,26.40
2022-08-08T12:05:13.610Z,26.50
2022-08-08T12:07:50.954Z,26.50
2022-08-08T12:10:23.129Z,26.50
2022-08-08T12:12:51.814Z,26.50
2022-08-08T12:15:28.968Z,26.50
2022-08-08T12:17:56.174Z,26.50
2022-08-08T12:20:24.469Z,26.60
2022-08-08T12:22:53.181Z,26.50
2022-08-08T12:25:29.775Z,26.50
2022-08-08T12:28:15.888Z,26.60
2022-08-08T12:30:49.945Z,26.70
2022-08-08T12:33:37.473Z,26.60
2022-08-08T12:36:22.659Z,26.60
2022-08-08T12:38:55.864Z,26.70
2022-08-08T12:41:34.998Z,26.80
2022-08-08T12:44:14.641Z,26.80
2022-08-08T12:47:02.711Z,26.90
2022-08-08T12:49:45.300Z,26.90
2022-08-08T12:52:28.572Z,26.90
2022-08-08T12:55:14.353Z,27.00
2022-08-08T12:57:56.932Z,27.00
2022-08-08T13:00:33.843Z,26.90
2022-08-08T13:03:07.358Z,27.00
2022-08-08T13:06:03.114Z,27.00
2022-08-08T13:08:22.002Z,27.10
2022-08-08T13:10:57.320Z,27.10
2022-08-08T13:13:37.418Z,27.10
2022-08-08T13:16:30.930Z,27.20
2022-08-08T13:19:06.781Z,27.10
2022-08-08T13:21:53.833Z,27.20
2022-08-08T13:24:42.463Z,27.20
2022-08-08T13:27:15.134Z,27.20
2022-08-08T13:29:58.629Z,27.30
2022-08-08T13:32:26.570Z,27.30
2022-08-08T13:34:54.747Z,27.30
2022-08-08T13:37:52.076Z,27.30
2022-08-08T13:40:10.727Z,27.30
2022-08-08T13:42:37.855Z,27.30
2022-08-08T13:45:06.193Z,27.30
2022-08-08T13:47:37.038Z,27.40
2022-08-08T13:50:37.442Z,27.40
2022-08-08T13:52:51.240Z,27.30
2022-08-08T13:55:29.648Z,27.30
2022-08-08T13:58:07.992Z,27.40
2022-08-08T14:00:45.466Z,27.40
2022-08-08T14:03:52.409Z,27.40
2022-08-08T14:06:09.408Z,27.30
2022-08-08T14:08:57.173Z,27.30
2022-08-08T14:11:25.808Z,27.30
2022-08-08T14:13:59.901Z,27.40
2022-08-08T14:16:28.620Z,27.40
2022-08-08T14:18:57.554Z,27.50
2022-08-08T14:21:48.799Z,27.50
2022-08-08T14:24:30.179Z,27.50
2022-08-08T14:26:58.010Z,27.50
2022-08-08T14:29:30.190Z,27.60
2022-08-08T14:32:10.966Z,27.50
2022-08-08T14:34:43.575Z,27.40
2022-08-08T14:37:16.257Z,27.40
2022-08-08T14:39:49.463Z,27.50
2022-08-08T14:42:26.769Z,27.50
2022-08-08T14:44:57.898Z,27.50
2022-08-08T14:47:28.055Z,27.50
2022-08-08T14:50:11.289Z,27.20
2022-08-08T14:52:46.588Z,27.60
2022-08-08T14:55:14.361Z,27.60
2022-08-08T14:58:06.119Z,27.60
2022-08-08T15:00:31.682Z,27.60
2022-08-08T15:03:14.115Z,27.70
2022-08-08T15:05:52.504Z,27.70
2022-08-08T15:08:34.252Z,27.70
2022-08-08T15:11:10.411Z,27.80
2022-08-08T15:13:40.697Z,27.80
2022-08-08T15:16:25.353Z,27.80
2022-08-08T15:18:55.232Z,27.80
2022-08-08T15:21:22.219Z,27.80
2022-08-08T15:23:50.503Z,27.80
2022-08-08T15:26:25.859Z,27.80
2022-08-08T15:28:56.569Z,27.90
2022-08-08T15:31:56.367Z,27.90
2022-08-08T15:34:29.936Z,27.90
2022-08-08T15:36:59.316Z,27.90
2022-08-08T15:39:27.611Z,27.90
2022-08-08T15:41:55.346Z,27.90
2022-08-08T15:44:22.354Z,27.90
2022-08-08T15:46:50.663Z,27.90
2022-08-08T15:49:20.541Z,27.90
2022-08-08T15:51:49.933Z,28.00
2022-08-08T15:54:37.424Z,28.00
2022-08-08T15:57:04.528Z,28.00
2022-08-08T16:00:06.745Z,28.00
2022-08-08T16:02:22.009Z,28.00
2022-08-08T16:04:59.086Z,27.90
2022-08-08T16:07:51.650Z,27.90
2022-08-08T16:13:02.488Z,27.90
2022-08-08T16:13:28.069Z,27.90
2022-08-08T16:15:59.082Z,28.00
2022-08-08T16:18:27.618Z,28.00
2022-08-08T16:21:00.188Z,28.10
2022-08-08T16:23:32.145Z,28.10
2022-08-08T16:26:04.409Z,28.10
2022-08-08T16:28:34.768Z,28.10
2022-08-08T16:31:07.855Z,28.10
2022-08-08T16:33:38.755Z,28.20
2022-08-08T16:36:09.615Z,28.20
2022-08-08T16:38:44.679Z,28.30
2022-08-08T16:41:20.135Z,28.50
2022-08-08T16:43:51.286Z,29.40
2022-08-08T16:46:36.083Z,30.40
2022-08-08T16:49:05.254Z,30.00
2022-08-08T16:55:03.235Z,29.60
2022-08-08T16:55:23.649Z,29.70
2022-08-08T16:57:23.425Z,31.60
2022-08-08T16:59:55.090Z,35.00
2022-08-08T17:02:42.889Z,36.90
2022-08-08T17:05:13.721Z,36.10
2022-08-08T17:07:41.979Z,34.00
2022-08-08T17:10:10.020Z,32.50
2022-08-08T17:12:38.815Z,31.50
2022-08-08T17:15:17.910Z,30.90
2022-08-08T17:18:02.910Z,30.40
2022-08-08T17:20:38.014Z,30.10
2022-08-08T17:23:18.502Z,29.80
2022-08-08T17:25:54.860Z,29.60
2022-08-08T17:28:28.822Z,29.40
2022-08-08T17:31:02.649Z,29.40
2022-08-08T17:34:37.556Z,29.40
2022-08-08T17:36:36.722Z,29.30
2022-08-08T17:39:05.149Z,29.30
2022-08-08T17:41:58.409Z,29.20
2022-08-08T17:44:29.733Z,29.20
2022-08-08T17:46:58.364Z,29.20
2022-08-08T17:49:28.806Z,29.20
2022-08-08T17:52:09.882Z,29.10
2022-08-08T17:54:37.031Z,29.10
2022-08-08T17:57:04.112Z,29.00
2022-08-08T17:59:36.360Z,28.90
2022-08-08T18:02:18.639Z,28.80
2022-08-08T18:04:50.681Z,28.80
2022-08-08T18:08:02.455Z,28.80
2022-08-08T18:10:07.243Z,28.80
2022-08-08T18:12:34.289Z,28.80
2022-08-08T18:15:01.733Z,28.80
2022-08-08T18:18:05.264Z,28.80
2022-08-08T18:20:44.257Z,28.80
2022-08-08T18:23:02.662Z,28.70
2022-08-08T18:25:37.372Z,28.70
2022-08-08T18:28:04.735Z,28.60
2022-08-08T18:30:33.089Z,28.60
2022-08-08T18:33:00.112Z,28.50
2022-08-08T18:35:30.688Z,28.40
2022-08-08T18:38:17.458Z,28.30
2022-08-08T18:40:46.610Z,28.20
2022-08-08T18:43:16.062Z,28.10
2022-08-08T18:46:52.322Z,28.00
2022-08-08T18:48:31.491Z,27.90
2022-08-08T18:50:59.133Z,27.80
2022-08-08T18:53:29.688Z,27.70
2022-08-08T18:56:23.317Z,27.60
2022-08-08T18:58:50.746Z,27.50
2022-08-08T19:02:26.255Z,27.40
2022-08-08T19:04:10.965Z,27.30
2022-08-08T19:06:39.955Z,27.20
2022-08-08T19:09:13.375Z,27.20
2022-08-08T19:11:46.611Z,27.10
2022-08-08T19:14:20.663Z,27.00
2022-08-08T19:16:48.101Z,26.90
2022-08-08T19:19:15.915Z,26.80
2022-08-08T19:21:48.687Z,26.70
2022-08-08T19:24:38.716Z,26.60
2022-08-08T19:27:06.599Z,26.60
2022-08-08T19:29:38.088Z,26.50
2022-08-08T19:32:13.169Z,26.40
2022-08-08T19:34:49.130Z,26.30
2022-08-08T19:37:18.482Z,26.30
2022-08-08T19:40:06.785Z,26.20
2022-08-08T19:42:33.797Z,26.20
2022-08-08T19:45:07.099Z,26.10
2022-08-08T19:47:34.510Z,26.00
2022-08-08T19:50:02.854Z,26.00
2022-08-08T19:52:34.797Z,26.00
2022-08-08T19:55:06.238Z,25.90
2022-08-08T19:57:35.640Z,25.80
2022-08-08T20:00:11.227Z,25.80
2022-08-08T20:02:54.233Z,25.70
2022-08-08T20:06:14.117Z,25.60
2022-08-08T20:08:30.078Z,25.60
2022-08-08T20:10:56.378Z,25.50
2022-08-08T20:14:32.461Z,25.50
2022-08-08T20:16:11.441Z,25.50
2022-08-08T20:18:53.796Z,25.40
2022-08-08T20:21:25.521Z,25.30
2022-08-08T20:23:57.383Z,25.30
2022-08-08T20:26:27.469Z,25.10
2022-08-08T20:28:57.433Z,25.00
2022-08-08T20:31:24.409Z,25.00
2022-08-08T20:34:30.411Z,24.90
2022-08-08T20:37:02.491Z,24.80
2022-08-08T20:39:39.628Z,24.70
2022-08-08T20:42:18.730Z,24.70
2022-08-08T20:44:47.513Z,24.70
2022-08-08T20:47:23.839Z,24.60
2022-08-08T20:49:54.173Z,24.50
2022-08-08T20:52:23.842Z,24.40
2022-08-08T20:54:50.850Z,24.40
2022-08-08T20:57:20.955Z,24.30
2022-08-08T20:59:48.536Z,24.30
2022-08-08T21:02:25.822Z,24.30
2022-08-08T21:04:56.058Z,24.20
2022-08-08T21:07:46.868Z,24.20
2022-08-08T21:10:13.049Z,24.20
2022-08-08T21:12:41.409Z,24.20
2022-08-08T21:15:12.015Z,24.20
2022-08-08T21:17:45.148Z,24.10
2022-08-08T21:20:23.064Z,24.00
2022-08-08T21:23:02.320Z,23.90
2022-08-08T21:25:36.127Z,23.90
2022-08-08T21:28:09.425Z,23.90
2022-08-08T21:30:49.457Z,23.80
2022-08-08T21:33:20.617Z,23.70
2022-08-08T21:36:16.753Z,23.60
2022-08-08T21:38:35.362Z,23.60
2022-08-08T21:41:02.329Z,23.50
2022-08-08T21:43:30.899Z,23.40
2022-08-08T21:48:05.750Z,23.40
2022-08-08T21:48:49.471Z,23.30
2022-08-08T21:51:46.067Z,23.20
2022-08-08T21:54:34.462Z,23.20
2022-08-08T21:56:59.369Z,23.20
2022-08-08T21:59:28.291Z,23.10
2022-08-08T22:02:11.401Z,23.10
2022-08-08T22:04:39.639Z,23.10
2022-08-08T22:07:06.699Z,23.10
2022-08-08T22:09:37.449Z,23.10
2022-08-08T22:12:17.036Z,23.10
2022-08-08T22:14:50.180Z,23.10
2022-08-08T22:17:19.570Z,23.00
2022-08-08T22:20:10.477Z,23.00
2022-08-08T22:22:37.970Z,22.90
2022-08-08T22:25:12.151Z,23.00
2022-08-08T22:28:04.282Z,23.00
2022-08-08T22:30:33.968Z,22.90
2022-08-08T22:33:02.532Z,22.90
2022-08-08T22:36:04.897Z,22.80
2022-08-08T22:38:23.102Z,22.80
2022-08-08T22:40:50.330Z,22.80
2022-08-08T22:43:17.758Z,22.80
2022-08-08T22:45:46.694Z,22.70
2022-08-08T22:48:21.508Z,22.70
2022-08-08T22:50:48.969Z,22.70
2022-08-08T22:54:28.373Z,22.60
2022-08-08T22:56:03.686Z,22.60
2022-08-08T22:58:33.321Z,22.70
